Time;durP1;ratioP1;P1;durP2;ratioP2;P2;SDS_P1;SDS_P2;PMS_P1;PMS_P2;Temp;Humidity;BMP_temperature;BMP_pressure;BME280_temperature;BME280_humidity;BME280_pressure;Samples;Min_cycle;Max_cycle;Signal;HPM_P1;HPM_P2
2023/01/27 00:02:16;;;;;;;;;;;;;;;;;;5093786;28;1301;-74
2023/01/27 00:04:42;;;;;;;;;;;;;;;;;;5094876;28;1046;-74
2023/01/27 00:07:07;;;;;;;;;;;;;;;;;;5094886;28;1910;-74
2023/01/27 00:09:33;;;;;;;;;;;;;;;;;;5094928;28;817;-74
2023/01/27 00:14:43;;;;;;;;;;;;;;;;;;5094150;28;819;-74
2023/01/27 00:17:08;;;;;;;;;;;;;;;;;;5083127;28;1232;-74
2023/01/27 00:19:34;;;;;;;;;;;;;;;;;;5082847;28;1156;-74
2023/01/27 00:24:44;;;;;;;;;;;;;;;;;;5094783;28;996;-74
2023/01/27 00:27:09;;;;;;;;;;;;;;;;;;5093420;28;1971;-74
2023/01/27 00:29:35;;;;;;;;;;;;;;;;;;5075536;28;1194;-74
2023/01/27 00:34:45;;;;;;;;;;;;;;;;;;5094519;28;615;-74
2023/01/27 00:37:10;;;;;;;;;;;;;;;;;;5076099;28;1277;-74
2023/01/27 00:39:36;;;;;;;;;;;;;;;;;;5094163;28;872;-74
2023/01/27 00:42:01;;;;;;;;;;;;;;;;;;5094111;28;828;-74
2023/01/27 00:44:26;;;;;;;;;;;;;;;;;;5093874;28;738;-74
2023/01/27 00:46:52;;;;;;;;;;;;;;;;;;5092290;28;1976;-74
2023/01/27 00:49:17;;;;;;;;;;;;;;;;;;5092994;28;1194;-74
2023/01/27 00:51:42;;;;;;;;;;;;;;;;;;5092607;28;1123;-74
2023/01/27 00:54:07;;;;;;;;;;;;;;;;;;5092299;28;1284;-74
2023/01/27 00:56:33;;;;;;;;;;;;;;;;;;5075655;28;1240;-74
2023/01/27 00:58:58;;;;;;;;;;;;;;;;;;5075526;28;1293;-74
2023/01/27 01:01:24;;;;;;;;;;;;;;;;;;5092758;28;1166;-74
2023/01/27 01:03:49;;;;;;;;;;;;;;;;;;5092765;28;955;-74
2023/01/27 01:06:15;;;;;;;;;;;;;;;;;;5075887;28;1971;-74
2023/01/27 01:08:41;;;;;;;;;;;;;;;;;;5093895;28;986;-74
2023/01/27 01:11:07;;;;;;;;;;;;;;;;;;5092204;28;1271;-74
2023/01/27 01:13:33;;;;;;;;;;;;;;;;;;5094128;28;1445;-74
2023/01/27 01:16:03;;;;;;;;;;;;;;;;;;5075728;28;1139;-74
2023/01/27 01:18:29;;;;;;;;;;;;;;;;;;5092529;28;1240;-74
2023/01/27 01:20:54;;;;;;;;;;;;;;;;;;5075815;28;1081;-74
2023/01/27 01:23:19;;;;;;;;;;;;;;;;;;5093389;28;884;-74
2023/01/27 01:25:52;;;;;;;;;;;;;;;;;;5092071;28;965;-74
2023/01/27 01:28:17;;;;;;;;;;;;;;;;;;5091444;28;1965;-74
2023/01/27 01:30:43;;;;;;;;;;;;;;;;;;5093181;28;1171;-74
2023/01/27 01:33:08;;;;;;;;;;;;;;;;;;5093386;28;991;-74
2023/01/27 01:35:36;;;;;;;;;;;;;;;;;;5091758;28;1236;-74
2023/01/27 01:38:01;;;;;;;;;;;;;;;;;;5092987;28;829;-74
2023/01/27 01:40:26;;;;;;;;;;;;;;;;;;5075078;28;1281;-74
2023/01/27 01:42:52;;;;;;;;;;;;;;;;;;5092960;28;916;-74
2023/01/27 01:45:29;;;;;;;;;;;;;;;;;;5095806;28;1318;-74
2023/01/27 01:47:54;;;;;;;;;;;;;;;;;;5099456;28;1905;-73
2023/01/27 01:50:19;;;;;;;;;;;;;;;;;;5105124;28;1164;-74
2023/01/27 01:52:45;;;;;;;;;;;;;;;;;;5101843;28;1143;-74
2023/01/27 01:55:10;;;;;;;;;;;;;;;;;;5107439;28;1124;-74
2023/01/27 01:57:36;;;;;;;;;;;;;;;;;;5113354;28;923;-74
2023/01/27 02:00:09;;;;;;;;;;;;;;;;;;5111341;28;1153;-73
2023/01/27 02:02:35;;;;;;;;;;;;;;;;;;5111833;28;840;-74
2023/01/27 02:05:00;;;;;;;;;;;;;;;;;;5111361;28;1269;-73
2023/01/27 02:07:37;;;;;;;;;;;;;;;;;;5113169;28;1964;-74
2023/01/27 02:10:03;;;;;;;;;;;;;;;;;;5112163;28;1183;-74
2023/01/27 02:12:28;;;;;;;;;;;;;;;;;;5110517;28;1217;-74
2023/01/27 02:14:54;;;;;;;;;;;;;;;;;;5110501;28;848;-74
2023/01/27 02:17:19;;;;;;;;;;;;;;;;;;5111632;28;1266;-74
2023/01/27 02:19:44;;;;;;;;;;;;;;;;;;5094380;28;1253;-74
2023/01/27 02:22:14;;;;;;;;;;;;;;;;;;5112698;28;789;-74
2023/01/27 02:24:44;;;;;;;;;;;;;;;;;;5112742;28;919;-74
2023/01/27 02:27:13;;;;;;;;;;;;;;;;;;5111352;28;1970;-75
2023/01/27 02:29:38;;;;;;;;;;;;;;;;;;5094800;28;1313;-74
2023/01/27 02:32:03;;;;;;;;;;;;;;;;;;5112816;28;856;-74
2023/01/27 02:34:30;;;;;;;;;;;;;;;;;;5112534;28;883;-74
2023/01/27 02:36:57;;;;;;;;;;;;;;;;;;5113265;28;832;-74
2023/01/27 02:39:25;;;;;;;;;;;;;;;;;;5113585;28;966;-74
2023/01/27 02:41:53;;;;;;;;;;;;;;;;;;5113279;28;986;-74
2023/01/27 02:44:18;;;;;;;;;;;;;;;;;;5112965;28;962;-73
2023/01/27 02:46:43;;;;;;;;;;;;;;;;;;5113543;28;1957;-74
2023/01/27 02:49:09;;;;;;;;;;;;;;;;;;5111684;28;883;-74
2023/01/27 02:51:34;;;;;;;;;;;;;;;;;;5113808;28;916;-74
2023/01/27 02:53:59;;;;;;;;;;;;;;;;;;5111298;28;1280;-73
2023/01/27 02:56:25;;;;;;;;;;;;;;;;;;5094586;28;1142;-74
2023/01/27 02:58:50;;;;;;;;;;;;;;;;;;5110866;28;1158;-74
2023/01/27 03:01:16;;;;;;;;;;;;;;;;;;5093757;28;1096;-74
2023/01/27 03:03:45;;;;;;;;;;;;;;;;;;5111942;28;895;-74
2023/01/27 03:06:11;;;;;;;;;;;;;;;;;;5112025;28;1896;-74
2023/01/27 03:08:37;;;;;;;;;;;;;;;;;;5110655;28;1073;-74
2023/01/27 03:11:02;;;;;;;;;;;;;;;;;;5093686;28;1162;-74
2023/01/27 03:13:28;;;;;;;;;;;;;;;;;;5112245;28;860;-74
2023/01/27 03:18:46;;;;;;;;;;;;;;;;;;5112320;28;729;-74
2023/01/27 03:21:12;;;;;;;;;;;;;;;;;;5110561;28;1233;-74
2023/01/27 03:23:37;;;;;;;;;;;;;;;;;;5112255;28;855;-74
2023/01/27 03:26:05;;;;;;;;;;;;;;;;;;5110229;28;1902;-74
2023/01/27 03:28:30;;;;;;;;;;;;;;;;;;5111849;28;1143;-74
2023/01/27 03:31:00;;;;;;;;;;;;;;;;;;5110581;28;943;-74
2023/01/27 03:33:25;;;;;;;;;;;;;;;;;;5110611;28;1210;-74
2023/01/27 03:46:47;;;;;;;;;;;;;;;;;;5090484;28;1909;-74
2023/01/27 03:49:13;;;;;;;;;;;;;;;;;;5091537;28;1020;-74
2023/01/27 03:51:38;;;;;;;;;;;;;;;;;;5095591;28;939;-74
2023/01/27 03:54:03;;;;;;;;;;;;;;;;;;5094248;28;1277;-74
2023/01/27 03:56:29;;;;;;;;;;;;;;;;;;5094862;28;991;-74
2023/01/27 03:58:54;;;;;;;;;;;;;;;;;;5094260;28;1193;-74
2023/01/27 04:01:22;;;;;;;;;;;;;;;;;;5094839;28;1203;-74
2023/01/27 04:09:19;;;;;;;;;;;;;;;;;;5096385;28;670;-74
2023/01/27 04:11:54;;;;;;;;;;;;;;;;;;5093794;28;1198;-74
2023/01/27 04:14:20;;;;;;;;;;;;;;;;;;5092643;28;1453;-74
2023/01/27 04:16:45;;;;;;;;;;;;;;;;;;5093846;28;1151;-74
2023/01/27 04:19:11;;;;;;;;;;;;;;;;;;5110587;28;1205;-74
2023/01/27 04:21:36;;;;;;;;;;;;;;;;;;5095983;28;899;-74
2023/01/27 04:24:03;;;;;;;;;;;;;;;;;;5094614;28;1229;-74
2023/01/27 04:26:33;;;;;;;;;;;;;;;;;;5094167;28;1965;-74
2023/01/27 04:29:02;;;;;;;;;;;;;;;;;;5110058;28;1265;-74
2023/01/27 04:31:27;;;;;;;;;;;;;;;;;;5093995;28;1304;-74
2023/01/27 04:33:52;;;;;;;;;;;;;;;;;;5094706;28;880;-74
2023/01/27 04:36:18;;;;;;;;;;;;;;;;;;5127641;27;938;-74
2023/01/27 04:38:43;;;;;;;;;;;;;;;;;;5110368;28;1110;-74
2023/01/27 04:41:09;;;;;;;;;;;;;;;;;;5094380;28;951;-74
2023/01/27 04:43:34;;;;;;;;;;;;;;;;;;5127771;27;970;-74
2023/01/27 04:45:59;;;;;;;;;;;;;;;;;;5093361;28;1357;-74
2023/01/27 04:48:24;;;;;;;;;;;;;;;;;;5110326;28;1901;-74
2023/01/27 04:50:50;;;;;;;;;;;;;;;;;;5094195;28;1261;-74
2023/01/27 04:53:15;;;;;;;;;;;;;;;;;;5096189;28;832;-74
2023/01/27 04:55:43;;;;;;;;;;;;;;;;;;5093604;28;1475;-73
2023/01/27 04:58:11;;;;;;;;;;;;;;;;;;5095423;28;950;-74
2023/01/27 05:00:36;;;;;;;;;;;;;;;;;;5092990;28;1182;-74
2023/01/27 05:03:03;;;;;;;;;;;;;;;;;;5109818;28;1261;-75
2023/01/27 05:05:29;;;;;;;;;;;;;;;;;;5110296;28;1329;-74
2023/01/27 05:07:54;;;;;;;;;;;;;;;;;;5093252;28;1955;-74
2023/01/27 05:10:19;;;;;;;;;;;;;;;;;;5127316;27;863;-74
2023/01/27 05:12:45;;;;;;;;;;;;;;;;;;5109649;28;1281;-74
2023/01/27 05:15:10;;;;;;;;;;;;;;;;;;5110322;27;1362;-73
2023/01/27 05:17:35;;;;;;;;;;;;;;;;;;5098548;28;1181;-75
2023/01/27 05:20:00;;;;;;;;;;;;;;;;;;5116376;28;1174;-74
2023/01/27 05:22:26;;;;;;;;;;;;;;;;;;5100639;28;933;-74
2023/01/27 05:24:51;;;;;;;;;;;;;;;;;;5098005;28;1212;-74
2023/01/27 05:27:17;;;;;;;;;;;;;;;;;;5114934;28;1963;-74
2023/01/27 05:29:42;;;;;;;;;;;;;;;;;;5099592;28;1254;-75
2023/01/27 05:32:08;;;;;;;;;;;;;;;;;;5132906;27;1085;-74
2023/01/27 05:34:34;;;;;;;;;;;;;;;;;;5116081;28;1327;-75
2023/01/27 05:36:59;;;;;;;;;;;;;;;;;;5100850;28;1182;-74
2023/01/27 05:39:25;;;;;;;;;;;;;;;;;;5119843;28;1241;-74
2023/01/27 05:41:50;;;;;;;;;;;;;;;;;;5108014;28;1119;-74
2023/01/27 05:44:15;;;;;;;;;;;;;;;;;;5099523;28;803;-75
2023/01/27 05:46:41;;;;;;;;;;;;;;;;;;5118692;28;1909;-73
2023/01/27 05:49:06;;;;;;;;;;;;;;;;;;5102669;28;892;-75
2023/01/27 05:51:33;;;;;;;;;;;;;;;;;;5099265;28;1145;-74
2023/01/27 05:53:58;;;;;;;;;;;;;;;;;;5100161;28;817;-74
2023/01/27 05:56:25;;;;;;;;;;;;;;;;;;5115322;28;1325;-75
2023/01/27 05:58:52;;;;;;;;;;;;;;;;;;5115673;28;1083;-74
2023/01/27 06:01:19;;;;;;;;;;;;;;;;;;5099895;28;875;-74
2023/01/27 06:03:45;;;;;;;;;;;;;;;;;;5100346;28;903;-75
2023/01/27 06:06:11;;;;;;;;;;;;;;;;;;5100663;28;1902;-74
2023/01/27 06:08:36;;;;;;;;;;;;;;;;;;5100247;28;1123;-74
2023/01/27 06:11:02;;;;;;;;;;;;;;;;;;5114411;28;1159;-74
2023/01/27 06:13:28;;;;;;;;;;;;;;;;;;5098826;28;1335;-73
2023/01/27 06:15:56;;;;;;;;;;;;;;;;;;5098644;28;864;-74
2023/01/27 06:18:22;;;;;;;;;;;;;;;;;;5101207;28;1071;-74
2023/01/27 06:20:47;;;;;;;;;;;;;;;;;;5099159;28;1356;-73
2023/01/27 06:23:16;;;;;;;;;;;;;;;;;;5099679;28;970;-74
2023/01/27 06:25:42;;;;;;;;;;;;;;;;;;5098485;28;1077;-74
2023/01/27 06:28:08;;;;;;;;;;;;;;;;;;5093475;28;1909;-74
2023/01/27 06:30:34;;;;;;;;;;;;;;;;;;5092385;28;1364;-75
2023/01/27 06:33:00;;;;;;;;;;;;;;;;;;5126871;27;796;-75
2023/01/27 06:35:25;;;;;;;;;;;;;;;;;;5093629;28;864;-74
2023/01/27 06:37:50;;;;;;;;;;;;;;;;;;5126486;28;836;-74
2023/01/27 06:40:16;;;;;;;;;;;;;;;;;;5126702;28;840;-74
2023/01/27 06:42:42;;;;;;;;;;;;;;;;;;5099591;28;1205;-73
2023/01/27 06:45:08;;;;;;;;;;;;;;;;;;5111148;28;1192;-76
2023/01/27 06:47:33;;;;;;;;;;;;;;;;;;5095238;28;1906;-74
2023/01/27 06:49:58;;;;;;;;;;;;;;;;;;5112864;28;1308;-73
2023/01/27 06:52:24;;;;;;;;;;;;;;;;;;5112064;28;1229;-74
2023/01/27 06:54:49;;;;;;;;;;;;;;;;;;5112306;28;820;-74
2023/01/27 06:57:15;;;;;;;;;;;;;;;;;;5096028;28;1182;-73
2023/01/27 06:59:40;;;;;;;;;;;;;;;;;;5111998;28;852;-74
2023/01/27 07:02:06;;;;;;;;;;;;;;;;;;5113101;28;919;-73
2023/01/27 07:04:31;;;;;;;;;;;;;;;;;;5112721;28;864;-74
2023/01/27 07:06:56;;;;;;;;;;;;;;;;;;5111666;28;2350;-73
2023/01/27 07:09:22;;;;;;;;;;;;;;;;;;5112297;28;832;-74
2023/01/27 07:11:47;;;;;;;;;;;;;;;;;;5111500;28;836;-74
2023/01/27 07:14:13;;;;;;;;;;;;;;;;;;5111796;28;1122;-74
2023/01/27 07:16:38;;;;;;;;;;;;;;;;;;5112857;28;1039;-74
2023/01/27 07:19:03;;;;;;;;;;;;;;;;;;5112013;28;855;-74
2023/01/27 07:21:28;;;;;;;;;;;;;;;;;;5112427;28;879;-74
2023/01/27 07:23:54;;;;;;;;;;;;;;;;;;5111173;28;1440;-74
2023/01/27 07:26:19;;;;;;;;;;;;;;;;;;5096684;28;1917;-74
2023/01/27 07:28:44;;;;;;;;;;;;;;;;;;5097428;28;1526;-73
2023/01/27 07:31:10;;;;;;;;;;;;;;;;;;5116538;28;845;-74
2023/01/27 07:33:36;;;;;;;;;;;;;;;;;;5097609;28;1171;-74
2023/01/27 07:36:01;;;;;;;;;;;;;;;;;;5114326;28;832;-74
2023/01/27 07:38:26;;;;;;;;;;;;;;;;;;5115799;28;864;-74
2023/01/27 07:40:52;;;;;;;;;;;;;;;;;;5097990;28;1170;-73
2023/01/27 07:43:17;;;;;;;;;;;;;;;;;;5114867;28;1160;-74
2023/01/27 07:45:43;;;;;;;;;;;;;;;;;;5114656;28;915;-74
2023/01/27 07:48:08;;;;;;;;;;;;;;;;;;5115982;28;1969;-73
2023/01/27 07:50:34;;;;;;;;;;;;;;;;;;5114835;28;1225;-74
2023/01/27 07:53:00;;;;;;;;;;;;;;;;;;5115769;28;945;-74
2023/01/27 07:55:26;;;;;;;;;;;;;;;;;;5116165;28;887;-73
2023/01/27 07:57:55;;;;;;;;;;;;;;;;;;5115856;28;828;-73
2023/01/27 08:00:22;;;;;;;;;;;;;;;;;;5097107;28;1194;-74
2023/01/27 08:02:51;;;;;;;;;;;;;;;;;;5096812;28;1486;-74
2023/01/27 08:05:16;;;;;;;;;;;;;;;;;;5092769;28;1326;-73
2023/01/27 08:07:42;;;;;;;;;;;;;;;;;;5100265;28;1961;-74
2023/01/27 08:10:08;;;;;;;;;;;;;;;;;;5093967;28;1112;-74
2023/01/27 08:12:33;;;;;;;;;;;;;;;;;;5093321;28;1146;-73
2023/01/27 08:14:58;;;;;;;;;;;;;;;;;;5093601;28;1006;-74
2023/01/27 08:17:23;;;;;;;;;;;;;;;;;;5094950;28;1054;-73
2023/01/27 08:19:50;;;;;;;;;;;;;;;;;;5076578;28;1261;-72
2023/01/27 08:22:19;;;;;;;;;;;;;;;;;;5093529;28;1163;-73
2023/01/27 08:24:45;;;;;;;;;;;;;;;;;;5093215;28;984;-73
2023/01/27 08:27:10;;;;;;;;;;;;;;;;;;5094979;28;1898;-73
2023/01/27 08:29:35;;;;;;;;;;;;;;;;;;5092925;28;1308;-73
2023/01/27 08:32:01;;;;;;;;;;;;;;;;;;5093709;28;1124;-73
2023/01/27 08:34:26;;;;;;;;;;;;;;;;;;5093625;28;912;-74
2023/01/27 08:36:52;;;;;;;;;;;;;;;;;;5093080;28;1267;-73
2023/01/27 08:39:17;;;;;;;;;;;;;;;;;;5076509;28;1249;-73
2023/01/27 08:41:42;;;;;;;;;;;;;;;;;;5076513;28;1382;-73
2023/01/27 08:44:08;;;;;;;;;;;;;;;;;;5093859;28;899;-74
2023/01/27 08:46:33;;;;;;;;;;;;;;;;;;5093486;28;1905;-73
2023/01/27 08:48:58;;;;;;;;;;;;;;;;;;5094009;28;836;-73
2023/01/27 08:51:24;;;;;;;;;;;;;;;;;;5094339;28;840;-73
2023/01/27 08:53:49;;;;;;;;;;;;;;;;;;5075223;28;1197;-73
2023/01/27 08:56:14;;;;;;;;;;;;;;;;;;5075876;28;1305;-74
2023/01/27 08:58:40;;;;;;;;;;;;;;;;;;5092364;28;1174;-74
2023/01/27 09:01:07;;;;;;;;;;;;;;;;;;5093747;28;880;-74
2023/01/27 09:03:33;;;;;;;;;;;;;;;;;;5092200;28;892;-73
2023/01/27 09:05:59;;;;;;;;;;;;;;;;;;5092644;28;1209;-73
2023/01/27 09:08:24;;;;;;;;;;;;;;;;;;5075889;28;1914;-73
2023/01/27 09:10:49;;;;;;;;;;;;;;;;;;5091967;28;1272;-73
2023/01/27 09:13:15;;;;;;;;;;;;;;;;;;5092431;28;1301;-73
2023/01/27 09:15:42;;;;;;;;;;;;;;;;;;5092230;28;876;-73
2023/01/27 09:18:08;;;;;;;;;;;;;;;;;;5075371;28;1375;-73
2023/01/27 09:20:36;;;;;;;;;;;;;;;;;;5092735;28;1110;-73
2023/01/27 09:23:02;;;;;;;;;;;;;;;;;;5092005;28;1360;-74
2023/01/27 09:25:27;;;;;;;;;;;;;;;;;;5092652;28;893;-73
2023/01/27 09:27:53;;;;;;;;;;;;;;;;;;5074992;28;1901;-73
2023/01/27 09:30:18;;;;;;;;;;;;;;;;;;5092193;28;1166;-74
2023/01/27 09:32:45;;;;;;;;;;;;;;;;;;5105204;28;1159;-74
2023/01/27 09:35:10;;;;;;;;;;;;;;;;;;5098233;28;1132;-74
2023/01/27 09:37:43;;;;;;;;;;;;;;;;;;5103868;28;1144;-73
2023/01/27 09:40:14;;;;;;;;;;;;;;;;;;5112981;28;1213;-73
2023/01/27 09:42:42;;;;;;;;;;;;;;;;;;5112428;28;1153;-73
2023/01/27 09:45:11;;;;;;;;;;;;;;;;;;5104671;28;1187;-73
2023/01/27 09:47:57;;;;;;;;;;;;;;;;;;5095555;28;1917;-73
2023/01/27 09:50:41;;;;;;;;;;;;;;;;;;5095611;28;1203;-73
2023/01/27 09:53:11;;;;;;;;;;;;;;;;;;5091955;28;1177;-73
2023/01/27 09:55:54;;;;;;;;;;;;;;;;;;5092541;28;911;-73
2023/01/27 09:58:27;;;;;;;;;;;;;;;;;;5091752;28;1233;-73
2023/01/27 10:01:12;;;;;;;;;;;;;;;;;;5092729;28;962;-73
2023/01/27 10:03:53;;;;;;;;;;;;;;;;;;5092602;28;809;-73
2023/01/27 10:06:28;;;;;;;;;;;;;;;;;;5091138;28;1905;-73
2023/01/27 10:09:11;;;;;;;;;;;;;;;;;;5091775;28;856;-73
2023/01/27 10:11:58;;;;;;;;;;;;;;;;;;5092673;28;919;-73
2023/01/27 10:14:24;;;;;;;;;;;;;;;;;;5091262;28;1150;-73
2023/01/27 10:16:55;;;;;;;;;;;;;;;;;;5091449;28;1247;-73
2023/01/27 10:19:34;;;;;;;;;;;;;;;;;;5092864;28;836;-74
2023/01/27 10:22:06;;;;;;;;;;;;;;;;;;5091108;28;1284;-74
2023/01/27 10:25:06;;;;;;;;;;;;;;;;;;5092652;28;884;-73
2023/01/27 10:27:35;;;;;;;;;;;;;;;;;;5032595;28;1902;-73
2023/01/27 10:30:00;;;;;;;;;;;;;;;;;;5079237;28;1219;-74
2023/01/27 10:32:33;;;;;;;;;;;;;;;;;;5090965;28;1269;-74
2023/01/27 10:34:59;;;;;;;;;;;;;;;;;;5092298;28;836;-73
2023/01/27 10:37:32;;;;;;;;;;;;;;;;;;5092218;28;911;-74
2023/01/27 10:40:16;;;;;;;;;;;;;;;;;;5090373;28;1117;-73
2023/01/27 10:42:44;;;;;;;;;;;;;;;;;;5092065;28;864;-74
2023/01/27 10:45:10;;;;;;;;;;;;;;;;;;5090668;28;1244;-74
2023/01/27 10:47:38;;;;;;;;;;;;;;;;;;5091977;28;2043;-74
2023/01/27 10:50:11;;;;;;;;;;;;;;;;;;5090650;28;1434;-74
2023/01/27 10:52:36;;;;;;;;;;;;;;;;;;5090819;28;1138;-74
2023/01/27 10:55:04;;;;;;;;;;;;;;;;;;5092180;28;951;-74
2023/01/27 10:57:33;;;;;;;;;;;;;;;;;;5090468;28;1201;-74
2023/01/27 11:00:04;;;;;;;;;;;;;;;;;;5093159;28;1125;-73
2023/01/27 11:02:29;;;;;;;;;;;;;;;;;;5094797;28;1426;-74
2023/01/27 11:04:57;;;;;;;;;;;;;;;;;;5096093;28;828;-74
2023/01/27 11:07:23;;;;;;;;;;;;;;;;;;5095035;28;1969;-74
2023/01/27 11:09:52;;;;;;;;;;;;;;;;;;5096279;28;979;-73
2023/01/27 11:12:24;;;;;;;;;;;;;;;;;;5095805;28;1249;-74
2023/01/27 11:14:50;;;;;;;;;;;;;;;;;;5095026;28;1315;-74
2023/01/27 11:17:39;;;;;;;;;;;;;;;;;;5096566;28;864;-75
2023/01/27 11:20:27;;;;;;;;;;;;;;;;;;5096667;28;848;-74
2023/01/27 11:22:56;;;;;;;;;;;;;;;;;;5094542;28;1280;-73
2023/01/27 11:25:25;;;;;;;;;;;;;;;;;;5096560;28;1218;-74
2023/01/27 11:27:50;;;;;;;;;;;;;;;;;;5074846;28;1984;-74
2023/01/27 11:30:20;;;;;;;;;;;;;;;;;;5076161;28;1307;-74
2023/01/27 11:33:12;;;;;;;;;;;;;;;;;;5076408;28;966;-73
2023/01/27 11:35:37;;;;;;;;;;;;;;;;;;5073646;28;1083;-73
2023/01/27 11:38:02;;;;;;;;;;;;;;;;;;5091471;28;1257;-74
2023/01/27 11:40:32;;;;;;;;;;;;;;;;;;5075824;28;851;-74
2023/01/27 11:42:58;;;;;;;;;;;;;;;;;;5074807;28;1374;-75
2023/01/27 11:45:24;;;;;;;;;;;;;;;;;;5076272;28;884;-75
2023/01/27 11:47:54;;;;;;;;;;;;;;;;;;5091301;28;1906;-75
2023/01/27 11:50:23;;;;;;;;;;;;;;;;;;5075533;28;899;-75
2023/01/27 11:52:52;;;;;;;;;;;;;;;;;;5075362;28;798;-75
2023/01/27 11:55:20;;;;;;;;;;;;;;;;;;5075875;28;900;-76
2023/01/27 11:57:54;;;;;;;;;;;;;;;;;;5074300;28;1269;-74
2023/01/27 12:00:23;;;;;;;;;;;;;;;;;;5073816;28;1170;-75
2023/01/27 12:02:54;;;;;;;;;;;;;;;;;;5075429;28;856;-74
2023/01/27 12:05:36;;;;;;;;;;;;;;;;;;5075301;28;805;-75
2023/01/27 12:08:03;;;;;;;;;;;;;;;;;;5073631;28;1910;-75
2023/01/27 12:10:41;;;;;;;;;;;;;;;;;;5075182;28;829;-75
2023/01/27 12:13:08;;;;;;;;;;;;;;;;;;5073443;28;1171;-75
2023/01/27 12:15:34;;;;;;;;;;;;;;;;;;5074062;28;1269;-75
2023/01/27 12:18:02;;;;;;;;;;;;;;;;;;5090364;28;1583;-75
2023/01/27 12:20:30;;;;;;;;;;;;;;;;;;5075507;28;806;-75
2023/01/27 12:22:58;;;;;;;;;;;;;;;;;;5075047;28;861;-75
2023/01/27 12:25:31;;;;;;;;;;;;;;;;;;5074881;28;892;-75
2023/01/27 12:28:01;;;;;;;;;;;;;;;;;;5073356;28;1965;-75
2023/01/27 12:30:32;;;;;;;;;;;;;;;;;;5074120;28;1254;-75
2023/01/27 12:32:58;;;;;;;;;;;;;;;;;;5073854;28;1332;-75
2023/01/27 12:35:26;;;;;;;;;;;;;;;;;;5075441;28;888;-75
2023/01/27 12:38:15;;;;;;;;;;;;;;;;;;5073196;28;1198;-75
2023/01/27 12:40:42;;;;;;;;;;;;;;;;;;5082457;28;1298;-75
2023/01/27 12:43:12;;;;;;;;;;;;;;;;;;5073282;28;1230;-75
2023/01/27 12:45:38;;;;;;;;;;;;;;;;;;5074985;28;881;-75
2023/01/27 12:48:12;;;;;;;;;;;;;;;;;;5074358;28;1902;-74
2023/01/27 12:50:50;;;;;;;;;;;;;;;;;;5073677;28;1399;-75
2023/01/27 12:53:18;;;;;;;;;;;;;;;;;;5074282;28;1066;-74
2023/01/27 12:55:43;;;;;;;;;;;;;;;;;;5073338;28;1305;-75
2023/01/27 12:58:27;;;;;;;;;;;;;;;;;;5072682;28;1297;-75
2023/01/27 13:00:52;;;;;;;;;;;;;;;;;;5074176;28;904;-75
2023/01/27 13:03:19;;;;;;;;;;;;;;;;;;5089890;28;1305;-75
2023/01/27 13:05:45;;;;;;;;;;;;;;;;;;5072724;28;1287;-76
2023/01/27 13:08:15;;;;;;;;;;;;;;;;;;5082154;28;1902;-75
2023/01/27 13:10:54;;;;;;;;;;;;;;;;;;5102901;28;1119;-76
2023/01/27 13:13:22;;;;;;;;;;;;;;;;;;5072981;28;1206;-76
2023/01/27 13:15:52;;;;;;;;;;;;;;;;;;5072515;28;1293;-76
2023/01/27 13:18:20;;;;;;;;;;;;;;;;;;5073285;28;1177;-75
2023/01/27 13:20:55;;;;;;;;;;;;;;;;;;5073517;28;1206;-75
2023/01/27 13:23:22;;;;;;;;;;;;;;;;;;5073481;28;1356;-76
2023/01/27 13:25:47;;;;;;;;;;;;;;;;;;5072497;28;1170;-75
2023/01/27 13:28:16;;;;;;;;;;;;;;;;;;5073361;28;1934;-76
2023/01/27 13:30:45;;;;;;;;;;;;;;;;;;5073453;28;1194;-75
2023/01/27 13:33:32;;;;;;;;;;;;;;;;;;5071944;28;1321;-76
2023/01/27 13:35:57;;;;;;;;;;;;;;;;;;5071653;28;1230;-75
2023/01/27 13:38:39;;;;;;;;;;;;;;;;;;5072860;28;1222;-76
2023/01/27 13:41:11;;;;;;;;;;;;;;;;;;5072232;28;1290;-75
2023/01/27 13:43:40;;;;;;;;;;;;;;;;;;5072399;28;1127;-76
2023/01/27 13:46:20;;;;;;;;;;;;;;;;;;5071984;28;1253;-74
2023/01/27 13:48:49;;;;;;;;;;;;;;;;;;5072334;28;1901;-75
2023/01/27 13:51:16;;;;;;;;;;;;;;;;;;5072766;28;927;-76
2023/01/27 13:53:42;;;;;;;;;;;;;;;;;;5071438;28;1216;-76
2023/01/27 13:56:26;;;;;;;;;;;;;;;;;;5072096;28;1278;-75
2023/01/27 13:58:57;;;;;;;;;;;;;;;;;;5073193;28;828;-75
2023/01/27 14:01:25;;;;;;;;;;;;;;;;;;5073097;28;915;-75
2023/01/27 14:04:13;;;;;;;;;;;;;;;;;;5072048;28;1198;-75
2023/01/27 14:06:54;;;;;;;;;;;;;;;;;;5071982;28;1906;-76
2023/01/27 14:09:40;;;;;;;;;;;;;;;;;;5071517;28;1391;-76
2023/01/27 14:12:11;;;;;;;;;;;;;;;;;;5072829;28;824;-76
2023/01/27 14:14:45;;;;;;;;;;;;;;;;;;5071483;28;1134;-75
2023/01/27 14:17:10;;;;;;;;;;;;;;;;;;5072859;28;965;-76
2023/01/27 14:19:47;;;;;;;;;;;;;;;;;;5071501;28;1214;-76
2023/01/27 14:22:12;;;;;;;;;;;;;;;;;;5071500;28;1214;-75
2023/01/27 14:24:41;;;;;;;;;;;;;;;;;;5073052;28;966;-75
2023/01/27 14:27:11;;;;;;;;;;;;;;;;;;5071544;28;1907;-75
2023/01/27 14:29:39;;;;;;;;;;;;;;;;;;5070568;28;1210;-75
2023/01/27 14:32:11;;;;;;;;;;;;;;;;;;5070844;28;1297;-74
2023/01/27 14:34:37;;;;;;;;;;;;;;;;;;5072498;28;829;-73
2023/01/27 14:37:09;;;;;;;;;;;;;;;;;;5072137;28;872;-74
2023/01/27 14:39:44;;;;;;;;;;;;;;;;;;5096948;28;1311;-74
2023/01/27 14:42:13;;;;;;;;;;;;;;;;;;5094011;28;1136;-74
2023/01/27 14:44:38;;;;;;;;;;;;;;;;;;5112525;28;1132;-73
2023/01/27 14:47:42;;;;;;;;;;;;;;;;;;5111842;28;1979;-73
2023/01/27 14:50:15;;;;;;;;;;;;;;;;;;5058084;28;1299;-74
2023/01/27 14:52:46;;;;;;;;;;;;;;;;;;5051493;28;1240;-73
2023/01/27 14:55:30;;;;;;;;;;;;;;;;;;5083166;28;1341;-71
2023/01/27 14:57:59;;;;;;;;;;;;;;;;;;5111262;28;1205;-72
2023/01/27 15:00:36;;;;;;;;;;;;;;;;;;5111484;28;1288;-73
2023/01/27 15:03:01;;;;;;;;;;;;;;;;;;5099409;28;1249;-72
2023/01/27 15:05:31;;;;;;;;;;;;;;;;;;5092653;28;1167;-72
2023/01/27 15:07:59;;;;;;;;;;;;;;;;;;5092581;28;1902;-72
2023/01/27 15:10:28;;;;;;;;;;;;;;;;;;5092376;28;903;-71
2023/01/27 15:12:56;;;;;;;;;;;;;;;;;;5090896;28;1197;-72
2023/01/27 15:15:41;;;;;;;;;;;;;;;;;;5091372;28;1115;-71
2023/01/27 15:18:28;;;;;;;;;;;;;;;;;;5092115;28;843;-72
2023/01/27 15:20:59;;;;;;;;;;;;;;;;;;5092776;28;836;-71
2023/01/27 15:23:40;;;;;;;;;;;;;;;;;;5091564;28;1307;-71
2023/01/27 15:26:07;;;;;;;;;;;;;;;;;;5095334;28;1175;-72
2023/01/27 15:28:35;;;;;;;;;;;;;;;;;;5102743;28;1906;-71
2023/01/27 15:31:07;;;;;;;;;;;;;;;;;;5112555;28;1107;-72
2023/01/27 15:33:48;;;;;;;;;;;;;;;;;;5111570;28;1281;-73
2023/01/27 15:36:25;;;;;;;;;;;;;;;;;;5099493;28;1308;-72
2023/01/27 15:39:02;;;;;;;;;;;;;;;;;;5109790;28;1360;-72
2023/01/27 15:41:28;;;;;;;;;;;;;;;;;;5111103;28;1234;-73
2023/01/27 15:44:12;;;;;;;;;;;;;;;;;;5110659;28;948;-72
2023/01/27 15:46:41;;;;;;;;;;;;;;;;;;5112537;28;1902;-73
2023/01/27 15:49:12;;;;;;;;;;;;;;;;;;5115857;28;941;-72
2023/01/27 15:51:38;;;;;;;;;;;;;;;;;;5114545;28;1051;-72
2023/01/27 15:54:08;;;;;;;;;;;;;;;;;;5115938;28;859;-71
2023/01/27 15:56:39;;;;;;;;;;;;;;;;;;5114971;28;1151;-72
2023/01/27 15:59:06;;;;;;;;;;;;;;;;;;5113996;28;1142;-72
2023/01/27 16:01:33;;;;;;;;;;;;;;;;;;5115638;28;879;-72
2023/01/27 16:04:25;;;;;;;;;;;;;;;;;;5115693;28;1057;-72
2023/01/27 16:06:52;;;;;;;;;;;;;;;;;;5113691;28;1894;-72
2023/01/27 16:09:30;;;;;;;;;;;;;;;;;;5113988;28;1288;-72
2023/01/27 16:12:00;;;;;;;;;;;;;;;;;;5113927;28;1161;-72
2023/01/27 16:14:42;;;;;;;;;;;;;;;;;;5113966;28;1272;-72
2023/01/27 16:17:07;;;;;;;;;;;;;;;;;;5096845;28;1262;-72
2023/01/27 16:19:39;;;;;;;;;;;;;;;;;;5115646;28;824;-72
2023/01/27 16:22:10;;;;;;;;;;;;;;;;;;5113546;28;1253;-73
2023/01/27 16:24:38;;;;;;;;;;;;;;;;;;5115880;28;998;-72
2023/01/27 16:27:04;;;;;;;;;;;;;;;;;;5113620;28;1901;-72
2023/01/27 16:29:46;;;;;;;;;;;;;;;;;;5114724;28;1254;-72
2023/01/27 16:32:19;;;;;;;;;;;;;;;;;;5115489;28;946;-73
2023/01/27 16:34:48;;;;;;;;;;;;;;;;;;5115895;28;911;-73
2023/01/27 16:37:21;;;;;;;;;;;;;;;;;;5113952;28;1280;-72
2023/01/27 16:39:47;;;;;;;;;;;;;;;;;;5114117;28;1307;-72
2023/01/27 16:42:13;;;;;;;;;;;;;;;;;;5113671;28;1174;-72
2023/01/27 16:44:49;;;;;;;;;;;;;;;;;;5113447;28;1241;-73
2023/01/27 16:47:28;;;;;;;;;;;;;;;;;;5113869;28;1909;-72
2023/01/27 16:49:55;;;;;;;;;;;;;;;;;;5113879;28;1201;-72
2023/01/27 16:52:28;;;;;;;;;;;;;;;;;;5113760;28;888;-72
2023/01/27 16:54:54;;;;;;;;;;;;;;;;;;5115016;28;853;-72
2023/01/27 16:57:33;;;;;;;;;;;;;;;;;;5113983;28;1347;-73
2023/01/27 17:00:00;;;;;;;;;;;;;;;;;;5113707;28;1285;-73
2023/01/27 17:02:27;;;;;;;;;;;;;;;;;;5115651;28;911;-73
2023/01/27 17:04:57;;;;;;;;;;;;;;;;;;5113299;28;1182;-74
2023/01/27 17:07:23;;;;;;;;;;;;;;;;;;5113231;28;1909;-73
2023/01/27 17:09:53;;;;;;;;;;;;;;;;;;5115737;28;1185;-73
2023/01/27 17:12:28;;;;;;;;;;;;;;;;;;5113612;28;1055;-73
2023/01/27 17:14:54;;;;;;;;;;;;;;;;;;5101009;28;1293;-73
2023/01/27 17:17:22;;;;;;;;;;;;;;;;;;5088452;28;1280;-73
2023/01/27 17:19:48;;;;;;;;;;;;;;;;;;5112711;28;999;-73
2023/01/27 17:22:34;;;;;;;;;;;;;;;;;;5112541;28;1218;-73
2023/01/27 17:25:24;;;;;;;;;;;;;;;;;;5113731;28;1056;-73
2023/01/27 17:27:49;;;;;;;;;;;;;;;;;;5113915;28;1898;-74
2023/01/27 17:30:21;;;;;;;;;;;;;;;;;;5113549;28;1088;-73
2023/01/27 17:32:49;;;;;;;;;;;;;;;;;;5112598;28;1175;-73
2023/01/27 17:35:23;;;;;;;;;;;;;;;;;;5114200;28;1025;-73
2023/01/27 17:37:49;;;;;;;;;;;;;;;;;;5112795;28;1309;-74
2023/01/27 17:40:16;;;;;;;;;;;;;;;;;;5114046;28;823;-73
2023/01/27 17:42:42;;;;;;;;;;;;;;;;;;5112660;28;1162;-73
2023/01/27 17:45:20;;;;;;;;;;;;;;;;;;5112660;28;1276;-73
2023/01/27 17:47:45;;;;;;;;;;;;;;;;;;5113761;28;1913;-73